sensor_id;sensor_type;location;lat;lon;timestamp;pressure;altitude;pressure_sealevel;temperature;humidity
48386;BME280;34644;47.964;7.982;2022-09-27T00:04:46;95039.56;;;18.02;64.28
48386;BME280;34644;47.964;7.982;2022-09-27T00:11:46;95042.22;;;18.02;64.09
48386;BME280;34644;47.964;7.982;2022-09-27T00:18:47;95030.78;;;18.01;64.28
48386;BME280;34644;47.964;7.982;2022-09-27T00:25:56;95004.13;;;18.01;64.22
48386;BME280;34644;47.964;7.982;2022-09-27T00:32:57;95006.00;;;18.01;64.42
48386;BME280;34644;47.964;7.982;2022-09-27T00:39:57;95004.13;;;18.01;64.25
48386;BME280;34644;47.964;7.982;2022-09-27T00:54:10;95012.13;;;18.01;64.30
48386;BME280;34644;47.964;7.982;2022-09-27T01:01:12;95033.78;;;18.00;64.25
48386;BME280;34644;47.964;7.982;2022-09-27T01:08:15;95032.53;;;17.97;64.37
48386;BME280;34644;47.964;7.982;2022-09-27T01:30:35;95081.28;;;17.98;64.49
48386;BME280;34644;47.964;7.982;2022-09-27T01:44:53;95093.50;;;17.99;64.21
48386;BME280;34644;47.964;7.982;2022-09-27T01:51:51;95095.72;;;17.97;64.38
48386;BME280;34644;47.964;7.982;2022-09-27T02:05:55;95102.13;;;17.96;64.36
48386;BME280;34644;47.964;7.982;2022-09-27T02:21:14;95110.91;;;17.96;64.58
48386;BME280;34644;47.964;7.982;2022-09-27T02:35:27;95119.22;;;17.95;64.40
48386;BME280;34644;47.964;7.982;2022-09-27T02:42:29;95129.88;;;17.95;64.59
48386;BME280;34644;47.964;7.982;2022-09-27T02:49:34;95127.53;;;17.93;64.43
48386;BME280;34644;47.964;7.982;2022-09-27T02:56:56;95128.34;;;17.94;64.45
48386;BME280;34644;47.964;7.982;2022-09-27T03:04:29;95142.75;;;17.93;64.44
48386;BME280;34644;47.964;7.982;2022-09-27T03:11:33;95147.31;;;17.92;64.42
48386;BME280;34644;47.964;7.982;2022-09-27T03:18:34;95147.31;;;17.92;64.49
48386;BME280;34644;47.964;7.982;2022-09-27T03:25:54;95152.94;;;17.90;64.53
48386;BME280;34644;47.964;7.982;2022-09-27T03:32:55;95160.94;;;17.90;64.39
48386;BME280;34644;47.964;7.982;2022-09-27T03:40:08;95165.50;;;17.90;64.64
48386;BME280;34644;47.964;7.982;2022-09-27T03:47:08;95162.03;;;17.89;64.93
48386;BME280;34644;47.964;7.982;2022-09-27T03:54:09;95156.69;;;17.89;64.70
48386;BME280;34644;47.964;7.982;2022-09-27T04:01:09;95156.22;;;17.87;64.45
48386;BME280;34644;47.964;7.982;2022-09-27T04:08:12;95162.94;;;17.85;64.31
48386;BME280;34644;47.964;7.982;2022-09-27T04:15:14;95172.50;;;17.86;64.31
48386;BME280;34644;47.964;7.982;2022-09-27T04:22:23;95175.81;;;17.83;64.47
48386;BME280;34644;47.964;7.982;2022-09-27T04:29:24;95175.81;;;17.83;64.30
48386;BME280;34644;47.964;7.982;2022-09-27T04:36:26;95186.00;;;17.81;64.32
48386;BME280;34644;47.964;7.982;2022-09-27T04:43:47;95199.63;;;17.62;62.42
48386;BME280;34644;47.964;7.982;2022-09-27T04:50:54;95210.44;;;17.57;63.22
48386;BME280;34644;47.964;7.982;2022-09-27T04:57:54;95229.38;;;17.55;63.02
48386;BME280;34644;47.964;7.982;2022-09-27T05:04:54;95234.09;;;17.58;63.27
48386;BME280;34644;47.964;7.982;2022-09-27T05:12:01;95238.78;;;17.61;63.08
48386;BME280;34644;47.964;7.982;2022-09-27T05:19:07;95234.59;;;17.60;63.17
48386;BME280;34644;47.964;7.982;2022-09-27T05:26:35;95252.91;;;17.62;62.95
48386;BME280;34644;47.964;7.982;2022-09-27T05:33:36;95274.53;;;17.60;63.11
48386;BME280;34644;47.964;7.982;2022-09-27T05:40:55;95279.88;;;17.60;63.12
48386;BME280;34644;47.964;7.982;2022-09-27T05:47:57;95287.84;;;17.60;62.98
48386;BME280;34644;47.964;7.982;2022-09-27T05:54:58;95288.16;;;17.59;63.06
48386;BME280;34644;47.964;7.982;2022-09-27T06:01:59;95306.00;;;17.58;63.06
48386;BME280;34644;47.964;7.982;2022-09-27T06:09:32;95314.00;;;17.58;62.97
48386;BME280;34644;47.964;7.982;2022-09-27T06:16:33;95316.19;;;17.56;63.05
48386;BME280;34644;47.964;7.982;2022-09-27T06:23:34;95325.78;;;17.57;63.03
48386;BME280;34644;47.964;7.982;2022-09-27T06:30:49;95345.50;;;17.56;63.19
48386;BME280;34644;47.964;7.982;2022-09-27T06:38:13;95359.91;;;17.55;62.88
48386;BME280;34644;47.964;7.982;2022-09-27T06:45:21;95355.38;;;17.56;62.85
48386;BME280;34644;47.964;7.982;2022-09-27T06:52:47;95357.25;;;17.55;62.92
48386;BME280;34644;47.964;7.982;2022-09-27T06:59:48;95360.22;;;17.53;62.94
48386;BME280;34644;47.964;7.982;2022-09-27T07:07:27;95359.91;;;17.55;62.78
48386;BME280;34644;47.964;7.982;2022-09-27T07:14:27;95362.88;;;17.53;62.77
48386;BME280;34644;47.964;7.982;2022-09-27T07:21:28;95364.75;;;17.53;62.81
48386;BME280;34644;47.964;7.982;2022-09-27T07:28:29;95373.22;;;17.55;62.73
48386;BME280;34644;47.964;7.982;2022-09-27T07:35:30;95382.03;;;17.56;62.67
48386;BME280;34644;47.964;7.982;2022-09-27T07:42:31;95384.50;;;17.52;62.75
48386;BME280;34644;47.964;7.982;2022-09-27T07:49:31;95373.84;;;17.52;62.81
48386;BME280;34644;47.964;7.982;2022-09-27T07:56:49;95380.75;;;17.53;62.73
48386;BME280;34644;47.964;7.982;2022-09-27T08:03:52;95384.19;;;17.53;62.62
48386;BME280;34644;47.964;7.982;2022-09-27T08:10:54;95395.16;;;17.52;62.61
48386;BME280;34644;47.964;7.982;2022-09-27T08:17:54;95412.41;;;17.54;62.51
48386;BME280;34644;47.964;7.982;2022-09-27T08:25:15;95412.41;;;17.54;62.61
48386;BME280;34644;47.964;7.982;2022-09-27T08:32:22;95418.03;;;17.53;62.49
48386;BME280;34644;47.964;7.982;2022-09-27T08:39:23;95424.44;;;17.52;62.64
48386;BME280;34644;47.964;7.982;2022-09-27T08:53:33;95451.38;;;17.50;62.62
48386;BME280;34644;47.964;7.982;2022-09-27T09:00:37;95457.81;;;17.49;62.55
48386;BME280;34644;47.964;7.982;2022-09-27T09:36:08;95437.75;;;17.52;62.35
48386;BME280;34644;47.964;7.982;2022-09-27T09:50:21;95418.81;;;17.53;62.28
48386;BME280;34644;47.964;7.982;2022-09-27T09:57:30;95427.13;;;17.52;62.31
48386;BME280;34644;47.964;7.982;2022-09-27T10:04:33;95415.06;;;17.54;62.42
48386;BME280;34644;47.964;7.982;2022-09-27T10:11:36;95419.63;;;17.54;62.17
48386;BME280;34644;47.964;7.982;2022-09-27T10:19:01;95420.56;;;17.58;62.06
48386;BME280;34644;47.964;7.982;2022-09-27T10:26:03;95419.00;;;17.57;62.15
48386;BME280;34644;47.964;7.982;2022-09-27T10:33:15;95389.88;;;17.61;62.00
48386;BME280;34644;47.964;7.982;2022-09-27T10:40:29;95385.63;;;17.60;62.06
48386;BME280;34644;47.964;7.982;2022-09-27T10:47:32;95384.38;;;17.57;62.15
48386;BME280;34644;47.964;7.982;2022-09-27T11:01:53;95389.41;;;17.59;62.06
48386;BME280;34644;47.964;7.982;2022-09-27T11:09:24;95377.94;;;17.58;62.03
48386;BME280;34644;47.964;7.982;2022-09-27T11:23:55;95369.94;;;17.58;61.99
48386;BME280;34644;47.964;7.982;2022-09-27T11:31:09;95363.53;;;17.59;61.92
48386;BME280;34644;47.964;7.982;2022-09-27T11:38:18;95356.81;;;17.62;61.83
48386;BME280;34644;47.964;7.982;2022-09-27T12:00:07;95329.38;;;17.61;61.77
48386;BME280;34644;47.964;7.982;2022-09-27T12:14:33;95342.44;;;17.80;61.34
48386;BME280;34644;47.964;7.982;2022-09-27T12:21:35;95330.75;;;17.90;61.36
48386;BME280;34644;47.964;7.982;2022-09-27T12:28:48;95312.69;;;17.96;61.64
48386;BME280;34644;47.964;7.982;2022-09-27T12:35:51;95320.66;;;17.87;61.76
48386;BME280;34644;47.964;7.982;2022-09-27T12:42:59;95308.75;;;17.84;61.71
48386;BME280;34644;47.964;7.982;2022-09-27T12:50:29;95310.31;;;17.85;61.88
48386;BME280;34644;47.964;7.982;2022-09-27T13:12:15;95329.88;;;17.72;61.79
48386;BME280;34644;47.964;7.982;2022-09-27T13:19:36;95335.97;;;17.72;61.88
48386;BME280;34644;47.964;7.982;2022-09-27T13:26:43;95335.50;;;17.70;61.74
48386;BME280;34644;47.964;7.982;2022-09-27T13:40:53;95338.78;;;17.67;61.84
48386;BME280;34644;47.964;7.982;2022-09-27T13:47:59;95341.94;;;17.69;61.87
48386;BME280;34644;47.964;7.982;2022-09-27T14:02:28;95356.22;;;17.73;63.51
48386;BME280;34644;47.964;7.982;2022-09-27T14:09:31;95366.06;;;17.64;64.35
48386;BME280;34644;47.964;7.982;2022-09-27T14:16:42;95356.47;;;17.54;66.55
48386;BME280;34644;47.964;7.982;2022-09-27T14:23:45;95338.75;;;17.50;67.54
48386;BME280;34644;47.964;7.982;2022-09-27T14:30:45;95344.53;;;17.43;67.73
48386;BME280;34644;47.964;7.982;2022-09-27T14:37:59;95357.38;;;17.41;68.42
48386;BME280;34644;47.964;7.982;2022-09-27T14:45:00;95349.84;;;17.43;68.78
48386;BME280;34644;47.964;7.982;2022-09-27T14:52:13;95352.38;;;17.48;68.32
48386;BME280;34644;47.964;7.982;2022-09-27T14:59:15;95342.94;;;17.42;69.81
48386;BME280;34644;47.964;7.982;2022-09-27T15:06:19;95334.47;;;17.40;69.94
48386;BME280;34644;47.964;7.982;2022-09-27T15:13:20;95330.25;;;17.39;69.52
48386;BME280;34644;47.964;7.982;2022-09-27T15:27:27;95319.91;;;17.38;70.14
48386;BME280;34644;47.964;7.982;2022-09-27T15:34:27;95325.22;;;17.38;69.58
48386;BME280;34644;47.964;7.982;2022-09-27T15:41:29;95338.84;;;17.36;70.56
48386;BME280;34644;47.964;7.982;2022-09-27T15:49:34;95344.16;;;17.36;70.03
48386;BME280;34644;47.964;7.982;2022-09-27T15:56:10;95345.44;;;17.39;70.05
48386;BME280;34644;47.964;7.982;2022-09-27T16:03:12;95341.03;;;17.34;70.73
48386;BME280;34644;47.964;7.982;2022-09-27T16:10:13;95341.03;;;17.34;70.31
48386;BME280;34644;47.964;7.982;2022-09-27T16:17:14;95342.44;;;17.31;71.04
48386;BME280;34644;47.964;7.982;2022-09-27T16:24:15;95354.19;;;17.30;70.93
48386;BME280;34644;47.964;7.982;2022-09-27T16:31:16;95369.19;;;17.26;71.37
48386;BME280;34644;47.964;7.982;2022-09-27T16:38:17;95362.00;;;17.27;71.96
48386;BME280;34644;47.964;7.982;2022-09-27T16:45:17;95365.75;;;17.26;70.67
48386;BME280;34644;47.964;7.982;2022-09-27T16:52:17;95364.00;;;17.21;71.75
48386;BME280;34644;47.964;7.982;2022-09-27T16:59:18;95367.13;;;17.23;71.02
48386;BME280;34644;47.964;7.982;2022-09-27T17:06:18;95357.09;;;17.20;72.11
48386;BME280;34644;47.964;7.982;2022-09-27T17:13:19;95374.19;;;17.19;72.06
48386;BME280;34644;47.964;7.982;2022-09-27T17:20:19;95363.03;;;17.17;71.65
48386;BME280;34644;47.964;7.982;2022-09-27T17:27:19;95360.56;;;17.21;71.85
48386;BME280;34644;47.964;7.982;2022-09-27T17:34:20;95367.75;;;17.20;71.82
48386;BME280;34644;47.964;7.982;2022-09-27T17:41:22;95366.81;;;17.16;72.19
48386;BME280;34644;47.964;7.982;2022-09-27T17:48:25;95357.72;;;17.17;71.78
48386;BME280;34644;47.964;7.982;2022-09-27T17:55:44;95353.50;;;17.16;72.03
48386;BME280;34644;47.964;7.982;2022-09-27T18:02:44;95360.22;;;17.13;71.60
48386;BME280;34644;47.964;7.982;2022-09-27T18:09:45;95355.19;;;17.12;71.41
48386;BME280;34644;47.964;7.982;2022-09-27T18:16:45;95372.75;;;17.13;71.67
48386;BME280;34644;47.964;7.982;2022-09-27T18:23:45;95367.41;;;17.13;71.68
48386;BME280;34644;47.964;7.982;2022-09-27T18:30:45;95370.84;;;17.13;70.88
48386;BME280;34644;47.964;7.982;2022-09-27T18:37:46;95368.03;;;17.10;71.68
48386;BME280;34644;47.964;7.982;2022-09-27T18:44:46;95364.75;;;17.13;72.05
48386;BME280;34644;47.964;7.982;2022-09-27T18:51:46;95359.44;;;17.13;72.14
48386;BME280;34644;47.964;7.982;2022-09-27T18:58:48;95371.16;;;17.12;71.94
48386;BME280;34644;47.964;7.982;2022-09-27T19:05:53;95368.81;;;17.10;72.51
48386;BME280;34644;47.964;7.982;2022-09-27T19:12:54;95362.69;;;17.10;71.65
48386;BME280;34644;47.964;7.982;2022-09-27T19:19:55;95373.34;;;17.10;71.76
48386;BME280;34644;47.964;7.982;2022-09-27T19:26:56;95372.25;;;17.11;71.83
48386;BME280;34644;47.964;7.982;2022-09-27T19:33:56;95365.66;;;17.08;71.78
48386;BME280;34644;47.964;7.982;2022-09-27T19:40:57;95355.78;;;17.09;71.62
48386;BME280;34644;47.964;7.982;2022-09-27T19:47:57;95347.81;;;17.09;71.63
48386;BME280;34644;47.964;7.982;2022-09-27T19:54:58;95349.38;;;17.10;70.93
48386;BME280;34644;47.964;7.982;2022-09-27T20:01:58;95366.44;;;17.09;71.48
48386;BME280;34644;47.964;7.982;2022-09-27T20:08:59;95356.41;;;17.06;71.86
48386;BME280;34644;47.964;7.982;2022-09-27T20:16:06;95359.53;;;17.08;71.32
48386;BME280;34644;47.964;7.982;2022-09-27T20:23:07;95354.22;;;17.08;71.28
48386;BME280;34644;47.964;7.982;2022-09-27T20:30:07;95341.22;;;17.06;71.46
48386;BME280;34644;47.964;7.982;2022-09-27T20:37:08;95338.88;;;17.05;71.30
48386;BME280;34644;47.964;7.982;2022-09-27T20:44:09;95328.72;;;17.07;71.29
48386;BME280;34644;47.964;7.982;2022-09-27T20:51:10;95319.91;;;17.06;71.26
48386;BME280;34644;47.964;7.982;2022-09-27T20:58:13;95301.63;;;17.05;71.50
48386;BME280;34644;47.964;7.982;2022-09-27T21:05:13;95296.31;;;17.05;71.29
48386;BME280;34644;47.964;7.982;2022-09-27T21:12:13;95294.56;;;17.00;71.94
48386;BME280;34644;47.964;7.982;2022-09-27T21:19:13;95280.63;;;17.03;71.18
48386;BME280;34644;47.964;7.982;2022-09-27T21:26:15;95284.69;;;17.00;71.18
48386;BME280;34644;47.964;7.982;2022-09-27T21:33:16;95285.47;;;17.01;71.09
48386;BME280;34644;47.964;7.982;2022-09-27T21:40:16;95278.59;;;17.00;71.60
48386;BME280;34644;47.964;7.982;2022-09-27T21:47:16;95266.34;;;16.99;71.65
48386;BME280;34644;47.964;7.982;2022-09-27T21:54:17;95261.81;;;16.99;71.33
48386;BME280;34644;47.964;7.982;2022-09-27T22:01:18;95257.59;;;16.98;71.09
48386;BME280;34644;47.964;7.982;2022-09-27T22:08:19;95251.16;;;16.99;70.72
48386;BME280;34644;47.964;7.982;2022-09-27T22:15:19;95227.22;;;16.99;70.60
48386;BME280;34644;47.964;7.982;2022-09-27T22:22:20;95221.59;;;17.01;70.66
48386;BME280;34644;47.964;7.982;2022-09-27T22:29:20;95218.75;;;16.97;70.34
48386;BME280;34644;47.964;7.982;2022-09-27T22:36:21;95194.81;;;16.97;70.49
48386;BME280;34644;47.964;7.982;2022-09-27T22:43:22;95193.22;;;16.96;70.53
48386;BME280;34644;47.964;7.982;2022-09-27T22:50:22;95182.28;;;16.98;70.26
48386;BME280;34644;47.964;7.982;2022-09-27T22:57:22;95168.19;;;16.97;70.13
48386;BME280;34644;47.964;7.982;2022-09-27T23:04:24;95160.69;;;16.99;69.89
48386;BME280;34644;47.964;7.982;2022-09-27T23:11:25;95142.06;;;16.99;70.12
48386;BME280;34644;47.964;7.982;2022-09-27T23:18:25;95136.25;;;16.97;69.90
48386;BME280;34644;47.964;7.982;2022-09-27T23:25:25;95127.19;;;16.98;69.85
48386;BME280;34644;47.964;7.982;2022-09-27T23:32:26;95112.31;;;16.97;69.74
48386;BME280;34644;47.964;7.982;2022-09-27T23:39:26;95101.19;;;16.95;69.74
48386;BME280;34644;47.964;7.982;2022-09-27T23:46:27;95107.44;;;16.99;69.44
48386;BME280;34644;47.964;7.982;2022-09-27T23:53:28;95067.06;;;16.97;69.67
